createdAt,value
2023-12-05T00:01:24.714Z,102057.88
2023-12-05T00:03:53.131Z,102049.94
2023-12-05T00:06:21.598Z,102049.03
2023-12-05T00:08:50.002Z,102052.56
2023-12-05T00:11:18.365Z,102049.03
2023-12-05T00:13:46.739Z,102050.88
2023-12-05T00:16:15.275Z,102052.75
2023-12-05T00:18:46.334Z,102052.09
2023-12-05T00:21:15.110Z,102055.09
2023-12-05T00:23:43.392Z,102057.03
2023-12-05T00:26:11.784Z,102063.47
2023-12-05T00:28:40.182Z,102067.16
2023-12-05T00:31:08.646Z,102067.16
2023-12-05T00:33:37.123Z,102064.53
2023-12-05T00:36:05.825Z,102066.38
2023-12-05T00:38:34.429Z,102065.50
2023-12-05T00:41:03.042Z,102063.84
2023-12-05T00:43:31.448Z,102073.75
2023-12-05T00:46:00.260Z,102076.56
2023-12-05T00:48:30.491Z,102085.63
2023-12-05T00:50:59.341Z,102084.03
2023-12-05T00:53:27.665Z,102087.72
2023-12-05T00:55:55.968Z,102091.41
2023-12-05T00:58:24.276Z,102104.91
2023-12-05T01:00:52.819Z,102096.16
2023-12-05T01:03:22.530Z,102106.09
2023-12-05T01:05:50.986Z,102109.84
2023-12-05T01:08:19.398Z,102114.38
2023-12-05T01:10:47.805Z,102114.44
2023-12-05T01:13:16.207Z,102120.78
2023-12-05T01:15:44.487Z,102120.88
2023-12-05T01:18:13.762Z,102129.09
2023-12-05T01:20:42.329Z,102126.63
2023-12-05T01:23:11.267Z,102127.63
2023-12-05T01:25:39.685Z,102131.34
2023-12-05T01:28:08.014Z,102135.94
2023-12-05T01:30:36.333Z,102137.78
2023-12-05T01:33:04.916Z,102135.19
2023-12-05T01:35:33.558Z,102143.25
2023-12-05T01:38:02.022Z,102151.34
2023-12-05T01:40:30.616Z,102153.28
2023-12-05T01:42:58.960Z,102155.22
2023-12-05T01:45:27.400Z,102149.97
2023-12-05T01:47:57.959Z,102152.84
2023-12-05T01:50:30.691Z,102156.56
2023-12-05T01:53:06.713Z,102149.50
2023-12-05T01:55:35.507Z,102151.34
2023-12-05T01:58:04.004Z,102152.28
2023-12-05T02:00:32.725Z,102149.66
2023-12-05T02:03:01.555Z,102151.56
2023-12-05T02:05:30.280Z,102145.47
2023-12-05T02:07:59.593Z,102148.25
2023-12-05T02:10:28.092Z,102151.03
2023-12-05T02:12:56.623Z,102149.38
2023-12-05T02:15:25.047Z,102160.16
2023-12-05T02:18:25.189Z,102161.13
2023-12-05T02:21:01.564Z,102160.38
2023-12-05T02:23:38.629Z,102161.34
2023-12-05T02:26:15.648Z,102157.91
2023-12-05T02:28:44.492Z,102166.94
2023-12-05T02:31:12.779Z,102164.44
2023-12-05T02:33:41.939Z,102159.22
2023-12-05T02:36:57.718Z,102160.16
2023-12-05T02:39:43.220Z,102166.53
2023-12-05T02:42:14.157Z,102167.50
2023-12-05T02:44:46.941Z,102158.81
2023-12-05T02:47:17.548Z,102154.47
2023-12-05T02:49:46.088Z,102161.59
2023-12-05T02:52:14.639Z,102159.03
2023-12-05T02:54:42.995Z,102164.44
2023-12-05T02:57:11.332Z,102166.31
2023-12-05T02:59:39.596Z,102168.19
2023-12-05T03:02:08.153Z,102164.78
2023-12-05T03:04:36.675Z,102173.69
2023-12-05T03:07:05.139Z,102174.66
2023-12-05T03:09:33.424Z,102172.00
2023-12-05T03:12:01.683Z,102176.53
2023-12-05T03:14:30.045Z,102177.53
2023-12-05T03:16:58.340Z,102174.94
2023-12-05T03:19:27.041Z,102167.00
2023-12-05T03:21:56.968Z,102183.94
2023-12-05T03:24:25.555Z,102183.09
2023-12-05T03:26:53.817Z,102183.13
2023-12-05T03:29:22.068Z,102183.13
2023-12-05T03:31:50.399Z,102182.28
2023-12-05T03:34:18.810Z,102176.13
2023-12-05T03:36:47.262Z,102182.41
2023-12-05T03:39:16.508Z,102178.03
2023-12-05T03:41:49.326Z,102186.13
2023-12-05T03:44:17.676Z,102186.22
2023-12-05T03:46:45.963Z,102189.81
2023-12-05T03:49:14.919Z,102189.88
2023-12-05T03:51:43.369Z,102188.22
2023-12-05T03:54:11.898Z,102193.59
2023-12-05T03:56:40.231Z,102194.53
2023-12-05T03:59:08.530Z,102193.75
2023-12-05T04:01:36.901Z,102201.75
2023-12-05T04:04:05.344Z,102199.09
2023-12-05T04:06:34.124Z,102202.69
2023-12-05T04:09:06.837Z,102200.94
2023-12-05T04:11:36.096Z,102199.19
2023-12-05T04:14:04.432Z,102209.81
2023-12-05T04:16:32.832Z,102207.19
2023-12-05T04:19:01.216Z,102201.03
2023-12-05T04:21:29.666Z,102205.50
2023-12-05T04:23:57.969Z,102201.97
2023-12-05T04:26:28.311Z,102210.88
2023-12-05T04:28:57.226Z,102205.56
2023-12-05T04:31:29.045Z,102193.19
2023-12-05T04:33:58.421Z,102203.84
2023-12-05T04:36:26.860Z,102206.53
2023-12-05T04:38:55.402Z,102207.47
2023-12-05T04:41:24.023Z,102202.16
2023-12-05T04:43:52.307Z,102205.75
2023-12-05T04:46:21.072Z,102204.00
2023-12-05T04:48:49.565Z,102204.91
2023-12-05T04:51:21.812Z,102197.84
2023-12-05T04:53:50.146Z,102210.25
2023-12-05T04:56:18.397Z,102203.22
2023-12-05T04:58:46.819Z,102204.13
2023-12-05T05:01:15.214Z,102202.41
2023-12-05T05:03:43.690Z,102197.16
2023-12-05T05:06:12.946Z,102201.63
2023-12-05T05:08:41.304Z,102200.78
2023-12-05T05:11:10.013Z,102201.63
2023-12-05T05:13:45.865Z,102194.56
2023-12-05T05:16:18.397Z,102198.13
2023-12-05T05:18:46.764Z,102203.47
2023-12-05T05:21:15.114Z,102200.81
2023-12-05T05:23:43.447Z,102207.91
2023-12-05T05:26:11.762Z,102210.63
2023-12-05T05:28:40.055Z,102214.22
2023-12-05T05:31:08.679Z,102212.47
2023-12-05T05:33:37.037Z,102208.13
2023-12-05T05:36:06.122Z,102211.69
2023-12-05T05:38:35.045Z,102209.97
2023-12-05T05:41:08.239Z,102211.72
2023-12-05T05:43:37.107Z,102206.44
2023-12-05T05:46:05.617Z,102212.66
2023-12-05T05:48:34.655Z,102219.78
2023-12-05T05:51:03.051Z,102216.22
2023-12-05T05:53:31.299Z,102220.69
2023-12-05T05:56:03.156Z,102226.03
2023-12-05T05:58:31.552Z,102222.50
2023-12-05T06:00:59.965Z,102226.06
2023-12-05T06:03:30.261Z,102216.34
2023-12-05T06:06:00.983Z,102221.63
2023-12-05T06:08:29.462Z,102219.91
2023-12-05T06:10:57.773Z,102225.25
2023-12-05T06:13:26.395Z,102223.47
2023-12-05T06:15:54.777Z,102225.28
2023-12-05T06:18:23.636Z,102228.84
2023-12-05T06:20:53.882Z,102232.38
2023-12-05T06:23:22.128Z,102231.53
2023-12-05T06:25:50.350Z,102235.13
2023-12-05T06:28:18.702Z,102233.31
2023-12-05T06:30:47.096Z,102242.19
2023-12-05T06:33:15.758Z,102236.94
2023-12-05T06:35:44.117Z,102237.84
2023-12-05T06:38:12.497Z,102242.25
2023-12-05T06:40:41.353Z,102240.50
2023-12-05T06:43:10.724Z,102244.06
2023-12-05T06:45:39.153Z,102237.91
2023-12-05T06:48:07.561Z,102239.69
2023-12-05T06:50:35.997Z,102234.38
2023-12-05T06:53:04.465Z,102228.19
2023-12-05T06:55:32.986Z,102229.13
2023-12-05T06:58:01.384Z,102230.00
2023-12-05T07:00:29.707Z,102228.22
2023-12-05T07:02:58.230Z,102223.84
2023-12-05T07:05:26.790Z,102219.44
2023-12-05T07:07:55.223Z,102215.94
2023-12-05T07:10:23.476Z,102215.94
2023-12-05T07:12:51.901Z,102219.47
2023-12-05T07:15:20.245Z,102217.72
2023-12-05T07:17:49.161Z,102220.44
2023-12-05T07:20:17.686Z,102218.69
2023-12-05T07:22:46.260Z,102217.81
2023-12-05T07:25:14.527Z,102208.97
2023-12-05T07:27:42.799Z,102213.38
2023-12-05T07:30:11.404Z,102212.50
2023-12-05T07:32:39.872Z,102204.59
2023-12-05T07:35:08.896Z,102204.56
2023-12-05T07:37:37.228Z,102203.75
2023-12-05T07:40:08.124Z,102199.34
2023-12-05T07:42:36.526Z,102200.22
2023-12-05T07:45:07.433Z,102188.78
2023-12-05T07:47:36.428Z,102185.22
2023-12-05T07:50:04.869Z,102180.84
2023-12-05T07:52:33.163Z,102180.84
2023-12-05T07:55:01.527Z,102177.31
2023-12-05T07:57:29.830Z,102173.81
2023-12-05T07:59:58.457Z,102177.38
2023-12-05T08:02:26.741Z,102170.34
2023-12-05T08:04:55.137Z,102167.72
2023-12-05T08:07:23.486Z,102179.19
2023-12-05T08:09:51.787Z,102181.84
2023-12-05T08:12:20.103Z,102180.09
2023-12-05T08:14:48.419Z,102176.59
2023-12-05T08:17:16.715Z,102175.72
2023-12-05T08:19:45.086Z,102169.53
2023-12-05T08:22:13.349Z,102178.38
2023-12-05T08:24:42.276Z,102181.91
2023-12-05T08:27:10.766Z,102173.09
2023-12-05T08:29:39.012Z,102184.59
2023-12-05T08:32:07.408Z,102177.50
2023-12-05T08:34:36.469Z,102168.72
2023-12-05T08:37:04.916Z,102174.00
2023-12-05T08:39:33.245Z,102168.69
2023-12-05T08:42:01.612Z,102170.50
2023-12-05T08:44:30.131Z,102167.84
2023-12-05T08:46:58.412Z,102172.28
2023-12-05T08:49:27.428Z,102169.63
2023-12-05T08:51:55.824Z,102163.47
2023-12-05T08:54:24.317Z,102169.69
2023-12-05T08:56:54.148Z,102163.50
2023-12-05T08:59:22.444Z,102153.78
2023-12-05T09:01:50.880Z,102159.09
2023-12-05T09:04:19.500Z,102162.66
2023-12-05T09:06:48.056Z,102164.41
2023-12-05T09:09:16.503Z,102155.56
2023-12-05T09:11:46.419Z,102145.88
2023-12-05T09:14:14.689Z,102150.31
2023-12-05T09:16:43.019Z,102143.25
2023-12-05T09:19:11.712Z,102145.88
2023-12-05T09:21:41.167Z,102145.88
2023-12-05T09:24:12.599Z,102142.34
2023-12-05T09:26:40.829Z,102148.56
2023-12-05T09:29:09.650Z,102153.00
2023-12-05T09:31:37.935Z,102151.22
2023-12-05T09:34:06.228Z,102152.13
2023-12-05T09:36:34.562Z,102145.06
2023-12-05T09:39:02.860Z,102150.34
2023-12-05T09:41:31.716Z,102148.59
2023-12-05T09:44:03.858Z,102143.31
2023-12-05T09:46:44.614Z,102152.13
2023-12-05T09:49:19.341Z,102150.38
2023-12-05T09:51:50.477Z,102153.00
2023-12-05T09:54:18.969Z,102154.81
2023-12-05T09:56:47.581Z,102161.00
2023-12-05T09:59:17.391Z,102161.00
2023-12-05T10:01:47.181Z,102160.16
2023-12-05T10:04:19.170Z,102154.84
2023-12-05T10:06:50.493Z,102159.28
2023-12-05T10:09:22.460Z,102160.16
2023-12-05T10:11:51.940Z,102161.91
2023-12-05T10:14:20.434Z,102163.66
2023-12-05T10:16:51.142Z,102153.06
2023-12-05T10:19:20.652Z,102151.31
2023-12-05T10:21:52.782Z,102153.94
2023-12-05T10:24:21.147Z,102149.56
2023-12-05T10:26:49.491Z,102150.44
2023-12-05T10:29:18.778Z,102142.50
2023-12-05T10:31:47.096Z,102140.75
2023-12-05T10:34:16.055Z,102140.75
2023-12-05T10:37:02.413Z,102145.13
2023-12-05T10:39:37.606Z,102144.28
2023-12-05T10:42:06.160Z,102142.53
2023-12-05T10:44:41.702Z,102143.41
2023-12-05T10:47:12.997Z,102138.16
2023-12-05T10:49:44.142Z,102139.91
2023-12-05T10:52:15.994Z,102143.44
2023-12-05T10:54:46.310Z,102142.56
2023-12-05T10:57:14.610Z,102139.91
2023-12-05T10:59:42.951Z,102134.63
2023-12-05T11:02:16.381Z,102136.41
2023-12-05T11:04:45.082Z,102137.28
2023-12-05T11:07:13.493Z,102125.84
2023-12-05T11:09:45.262Z,102124.94
2023-12-05T11:12:16.125Z,102129.34
2023-12-05T11:14:47.674Z,102124.06
2023-12-05T11:17:29.552Z,102121.41
2023-12-05T11:20:29.269Z,102111.72
2023-12-05T11:23:09.192Z,102104.66
2023-12-05T11:25:55.127Z,102106.44
2023-12-05T11:29:00.377Z,102107.31
2023-12-05T11:31:44.045Z,102110.88
2023-12-05T11:34:24.312Z,102116.13
2023-12-05T11:37:14.140Z,102109.13
2023-12-05T11:39:42.835Z,102111.78
2023-12-05T11:42:13.664Z,102101.19
2023-12-05T11:44:42.827Z,102092.38
2023-12-05T11:47:30.514Z,102096.78
2023-12-05T11:50:00.686Z,102092.38
2023-12-05T11:52:39.718Z,102094.16
2023-12-05T11:55:10.644Z,102080.94
2023-12-05T11:57:38.955Z,102083.59
2023-12-05T12:00:11.757Z,102088.88
2023-12-05T12:02:40.059Z,102085.34
2023-12-05T12:05:11.582Z,102088.88
2023-12-05T12:07:58.780Z,102087.09
2023-12-05T12:10:30.637Z,102096.78
2023-12-05T12:13:01.079Z,102098.53
2023-12-05T12:15:38.903Z,102099.44
2023-12-05T12:18:07.499Z,102102.97
2023-12-05T12:20:36.086Z,102111.78
2023-12-05T12:23:04.584Z,102112.66
2023-12-05T12:25:33.165Z,102113.53
2023-12-05T12:28:02.153Z,102110.91
2023-12-05T12:30:36.685Z,102107.38
2023-12-05T12:33:08.396Z,102108.25
2023-12-05T12:35:37.072Z,102116.19
2023-12-05T12:38:05.574Z,102105.63
2023-12-05T12:40:35.735Z,102099.44
2023-12-05T12:43:05.153Z,102105.63
2023-12-05T12:45:33.764Z,102105.59
2023-12-05T12:48:02.219Z,102107.38
2023-12-05T12:50:30.867Z,102098.56
2023-12-05T12:53:03.519Z,102098.56
2023-12-05T12:55:31.903Z,102099.44
2023-12-05T12:58:01.710Z,102094.19
2023-12-05T13:00:34.160Z,102096.81
2023-12-05T13:03:07.652Z,102087.13
2023-12-05T13:05:43.511Z,102094.16
2023-12-05T13:08:11.932Z,102094.16
2023-12-05T13:10:40.872Z,102095.06
2023-12-05T13:13:09.442Z,102098.56
2023-12-05T13:15:38.699Z,102100.31
2023-12-05T13:18:10.584Z,102095.94
2023-12-05T13:20:56.609Z,102093.28
2023-12-05T13:23:25.039Z,102099.41
2023-12-05T13:25:53.493Z,102087.97
2023-12-05T13:28:25.413Z,102087.97
2023-12-05T13:30:53.794Z,102085.38
2023-12-05T13:33:22.371Z,102084.47
2023-12-05T13:35:51.721Z,102080.06
2023-12-05T13:38:20.754Z,102074.78
2023-12-05T13:40:49.168Z,102075.69
2023-12-05T13:43:17.519Z,102070.38
2023-12-05T13:45:46.301Z,102077.41
2023-12-05T13:48:14.760Z,102076.53
2023-12-05T13:50:43.240Z,102072.13
2023-12-05T13:53:11.626Z,102077.41
2023-12-05T13:55:39.906Z,102071.28
2023-12-05T13:58:08.543Z,102072.16
2023-12-05T14:00:36.933Z,102070.41
2023-12-05T14:03:05.310Z,102062.47
2023-12-05T14:05:33.820Z,102069.50
2023-12-05T14:08:02.425Z,102067.75
2023-12-05T14:10:30.699Z,102063.34
2023-12-05T14:12:59.052Z,102068.59
2023-12-05T14:15:27.421Z,102073.00
2023-12-05T14:17:55.817Z,102075.66
2023-12-05T14:20:24.963Z,102083.56
2023-12-05T14:22:53.429Z,102082.69
2023-12-05T14:25:21.774Z,102087.06
2023-12-05T14:27:50.233Z,102091.47
2023-12-05T14:30:18.591Z,102091.47
2023-12-05T14:32:46.999Z,102090.59
2023-12-05T14:35:15.641Z,102095.00
2023-12-05T14:37:44.004Z,102100.25
2023-12-05T14:40:12.580Z,102100.28
2023-12-05T14:42:41.063Z,102100.28
2023-12-05T14:45:10.504Z,102104.66
2023-12-05T14:47:39.034Z,102112.59
2023-12-05T14:50:07.642Z,102108.19
2023-12-05T14:52:36.187Z,102105.56
2023-12-05T14:55:04.756Z,102111.69
2023-12-05T14:57:33.106Z,102116.13
2023-12-05T15:00:01.452Z,102116.13
2023-12-05T15:02:29.767Z,102112.63
2023-12-05T15:04:58.143Z,102103.81
2023-12-05T15:07:27.185Z,102106.47
2023-12-05T15:09:55.562Z,102102.94
2023-12-05T15:12:23.888Z,102106.47
2023-12-05T15:14:52.253Z,102113.50
2023-12-05T15:17:20.844Z,102119.66
2023-12-05T15:20:17.982Z,102121.44
2023-12-05T15:22:37.601Z,102123.22
2023-12-05T15:25:06.383Z,102140.81
2023-12-05T15:27:37.762Z,102135.53
2023-12-05T15:30:06.704Z,102129.38
2023-12-05T15:32:35.105Z,102132.03
2023-12-05T15:35:03.497Z,102129.38
2023-12-05T15:37:32.884Z,102136.44
2023-12-05T15:40:01.171Z,102141.72
2023-12-05T15:42:29.836Z,102147.00
2023-12-05T15:44:59.195Z,102154.06
2023-12-05T15:47:27.480Z,102152.28
2023-12-05T15:49:56.227Z,102155.81
2023-12-05T15:52:24.651Z,102150.50
2023-12-05T15:54:53.057Z,102151.41
2023-12-05T15:57:22.016Z,102152.28
2023-12-05T15:59:50.859Z,102149.63
2023-12-05T16:02:20.021Z,102152.25
2023-12-05T16:04:49.229Z,102156.66
2023-12-05T16:07:17.931Z,102164.59
2023-12-05T16:09:46.406Z,102161.91
2023-12-05T16:12:15.198Z,102164.56
2023-12-05T16:14:43.720Z,102165.44
2023-12-05T16:17:13.744Z,102169.81
2023-12-05T16:19:42.338Z,102164.50
2023-12-05T16:22:11.095Z,102157.41
2023-12-05T16:24:39.497Z,102160.94
2023-12-05T16:27:07.800Z,102160.94
2023-12-05T16:29:36.436Z,102167.13
2023-12-05T16:32:04.897Z,102160.06
2023-12-05T16:34:33.397Z,102164.47
2023-12-05T16:37:01.803Z,102170.63
2023-12-05T16:39:30.191Z,102167.09
2023-12-05T16:41:58.558Z,102171.50
2023-12-05T16:44:27.436Z,102167.97
2023-12-05T16:46:56.633Z,102167.94
2023-12-05T16:49:25.896Z,102169.72
2023-12-05T16:51:54.466Z,102173.25
2023-12-05T16:54:22.885Z,102176.75
2023-12-05T16:56:52.641Z,102184.69
2023-12-05T16:59:28.004Z,102180.25
2023-12-05T17:02:00.211Z,102184.66
2023-12-05T17:04:28.655Z,102183.75
2023-12-05T17:06:57.136Z,102182.84
2023-12-05T17:09:25.630Z,102181.06
2023-12-05T17:11:54.013Z,102185.41
2023-12-05T17:14:22.304Z,102196.88
2023-12-05T17:16:51.914Z,102197.72
2023-12-05T17:19:20.406Z,102202.09
2023-12-05T17:21:48.799Z,102201.16
2023-12-05T17:24:17.231Z,102200.25
2023-12-05T17:26:45.617Z,102187.81
2023-12-05T17:29:13.946Z,102182.50
2023-12-05T17:31:42.287Z,102193.06
2023-12-05T17:34:10.688Z,102190.41
2023-12-05T17:36:39.098Z,102196.50
2023-12-05T17:39:07.470Z,102190.31
2023-12-05T17:41:36.026Z,102197.31
2023-12-05T17:44:04.498Z,102195.50
2023-12-05T17:46:32.811Z,102188.41
2023-12-05T17:49:02.015Z,102190.13
2023-12-05T17:51:30.614Z,102189.22
2023-12-05T17:53:58.943Z,102192.75
2023-12-05T17:56:27.508Z,102178.56
2023-12-05T17:58:55.912Z,102174.06
2023-12-05T18:01:24.290Z,102175.78
2023-12-05T18:03:52.752Z,102176.63
2023-12-05T18:06:21.199Z,102170.34
2023-12-05T18:08:49.872Z,102173.84
2023-12-05T18:11:18.322Z,102174.63
2023-12-05T18:13:46.870Z,102176.34
2023-12-05T18:16:19.324Z,102171.81
2023-12-05T18:18:52.003Z,102162.00
2023-12-05T18:21:21.215Z,102159.25
2023-12-05T18:23:51.479Z,102155.59
2023-12-05T18:26:20.579Z,102147.53
2023-12-05T18:28:49.730Z,102142.13
2023-12-05T18:31:18.141Z,102138.50
2023-12-05T18:33:46.688Z,102136.59
2023-12-05T18:36:16.001Z,102123.19
2023-12-05T18:38:44.371Z,102123.91
2023-12-05T18:41:13.715Z,102120.22
2023-12-05T18:43:42.928Z,102119.25
2023-12-05T18:46:11.639Z,102110.25
2023-12-05T18:48:40.116Z,102105.69
2023-12-05T18:51:11.034Z,102101.16
2023-12-05T18:53:40.199Z,102093.94
2023-12-05T18:56:10.201Z,102089.38
2023-12-05T18:58:38.602Z,102082.16
2023-12-05T19:01:07.214Z,102081.13
2023-12-05T19:03:35.932Z,102079.16
2023-12-05T19:06:06.576Z,102078.13
2023-12-05T19:08:35.011Z,102074.25
2023-12-05T19:11:06.660Z,102070.41
2023-12-05T19:13:38.394Z,102069.31
2023-12-05T19:16:07.115Z,102066.47
2023-12-05T19:18:35.587Z,102055.69
2023-12-05T19:21:10.610Z,102045.84
2023-12-05T19:23:39.193Z,102034.13
2023-12-05T19:26:08.839Z,102033.94
2023-12-05T19:28:45.992Z,102030.25
2023-12-05T19:31:21.082Z,102028.09
2023-12-05T19:33:51.463Z,102018.00
2023-12-05T19:36:19.834Z,102018.53
2023-12-05T19:38:48.418Z,102012.97
2023-12-05T19:41:16.760Z,102013.78
2023-12-05T19:43:45.290Z,102005.59
2023-12-05T19:46:13.793Z,101997.34
2023-12-05T19:48:45.130Z,101990.00
2023-12-05T19:51:13.965Z,101988.06
2023-12-05T19:53:42.322Z,101978.94
2023-12-05T19:56:11.488Z,101975.19
2023-12-05T19:58:41.167Z,101965.16
2023-12-05T20:01:09.924Z,101967.66
2023-12-05T20:03:38.409Z,101944.28
2023-12-05T20:06:06.998Z,101944.06
2023-12-05T20:08:35.371Z,101930.38
2023-12-05T20:11:04.141Z,101937.22
2023-12-05T20:13:33.317Z,101939.69
2023-12-05T20:16:01.979Z,101930.44
2023-12-05T20:18:30.673Z,101928.31
2023-12-05T20:20:59.031Z,101932.53
2023-12-05T20:23:29.039Z,101932.28
2023-12-05T20:25:57.454Z,101924.94
2023-12-05T20:28:25.683Z,101925.25
2023-12-05T20:30:54.224Z,101911.63
2023-12-05T20:33:22.654Z,101908.56
2023-12-05T20:35:51.014Z,101903.09
2023-12-05T20:38:19.310Z,101894.91
2023-12-05T20:40:47.784Z,101891.88
2023-12-05T20:43:16.336Z,101884.47
2023-12-05T20:45:44.726Z,101883.34
2023-12-05T20:48:15.192Z,101860.84
2023-12-05T20:50:45.540Z,101858.81
2023-12-05T20:53:14.032Z,101856.72
2023-12-05T20:55:44.209Z,101851.13
2023-12-05T20:58:12.651Z,101846.25
2023-12-05T21:00:41.203Z,101838.72
2023-12-05T21:03:10.018Z,101836.53
2023-12-05T21:05:38.486Z,101835.22
2023-12-05T21:08:14.315Z,101831.44
2023-12-05T21:10:43.138Z,101822.00
2023-12-05T21:13:13.095Z,101810.81
2023-12-05T21:15:41.396Z,101801.53
2023-12-05T21:18:10.763Z,101803.03
2023-12-05T21:20:39.322Z,101804.47
2023-12-05T21:23:07.977Z,101792.75
2023-12-05T21:25:36.327Z,101798.75
2023-12-05T21:28:06.834Z,101792.03
2023-12-05T21:30:35.338Z,101793.53
2023-12-05T21:33:04.458Z,101787.09
2023-12-05T21:35:32.745Z,101792.91
2023-12-05T21:38:01.084Z,101789.06
2023-12-05T21:40:29.338Z,101788.84
2023-12-05T21:42:57.758Z,101781.53
2023-12-05T21:45:26.208Z,101783.09
2023-12-05T21:47:55.054Z,101776.53
2023-12-05T21:50:23.583Z,101777.84
2023-12-05T21:52:52.243Z,101776.63
2023-12-05T21:55:20.518Z,101770.06
2023-12-05T21:57:49.005Z,101776.41
2023-12-05T22:00:17.779Z,101766.53
2023-12-05T22:02:46.565Z,101761.94
2023-12-05T22:05:15.532Z,101766.31
2023-12-05T22:07:43.819Z,101766.22
2023-12-05T22:10:12.243Z,101768.78
2023-12-05T22:12:40.692Z,101765.91
2023-12-05T22:15:10.134Z,101758.53
2023-12-05T22:17:39.047Z,101759.41
2023-12-05T22:20:08.399Z,101749.69
2023-12-05T22:22:36.810Z,101754.03
2023-12-05T22:25:05.573Z,101755.72
2023-12-05T22:27:33.947Z,101759.03
2023-12-05T22:30:02.412Z,101763.31
2023-12-05T22:32:30.716Z,101765.81
2023-12-05T22:34:59.019Z,101761.19
2023-12-05T22:37:27.427Z,101761.59
2023-12-05T22:39:56.668Z,101765.28
2023-12-05T22:42:25.041Z,101761.84
2023-12-05T22:44:53.414Z,101767.31
2023-12-05T22:47:22.343Z,101762.03
2023-12-05T22:49:51.003Z,101754.91
2023-12-05T22:52:19.455Z,101761.22
2023-12-05T22:54:47.994Z,101765.94
2023-12-05T22:57:16.356Z,101762.75
2023-12-05T22:59:44.653Z,101761.28
2023-12-05T23:02:13.321Z,101755.38
2023-12-05T23:04:41.726Z,101757.50
2023-12-05T23:07:10.896Z,101750.72
2023-12-05T23:09:39.282Z,101753.75
2023-12-05T23:12:07.944Z,101746.09
2023-12-05T23:14:36.390Z,101741.00
2023-12-05T23:17:07.345Z,101735.72
2023-12-05T23:19:36.505Z,101729.56
2023-12-05T23:22:05.006Z,101725.25
2023-12-05T23:24:33.508Z,101725.31
2023-12-05T23:27:01.798Z,101725.38
2023-12-05T23:29:33.076Z,101733.50
2023-12-05T23:32:01.454Z,101738.91
2023-12-05T23:34:29.816Z,101730.94
2023-12-05T23:36:58.547Z,101727.41
2023-12-05T23:39:26.876Z,101719.38
2023-12-05T23:41:55.164Z,101723.84
2023-12-05T23:44:25.282Z,101718.63
2023-12-05T23:46:53.960Z,101724.13
2023-12-05T23:49:22.289Z,101720.72
2023-12-05T23:51:50.767Z,101725.31
2023-12-05T23:54:19.190Z,101725.53
2023-12-05T23:56:47.692Z,101721.31
2023-12-05T23:59:16.238Z,101724.25
